Time;durP1;ratioP1;P1;durP2;ratioP2;P2;SDS_P1;SDS_P2;PMS_P1;PMS_P2;Temp;Humidity;BMP_temperature;BMP_pressure;BME280_temperature;BME280_humidity;BME280_pressure;Samples;Min_cycle;Max_cycle;Signal;HPM_P1;HPM_P2
2022/07/06 00:01:35;;;;;;;2.00;1.53;;;18.40;1.00;;;;;;6155320;23;20462;-82
2022/07/06 00:04:02;;;;;;;2.40;1.40;;;18.40;1.00;;;;;;6154961;23;20430;-82
2022/07/06 00:06:35;;;;;;;4.20;1.80;;;18.40;1.00;;;;;;6168905;23;20407;-77
2022/07/06 00:09:03;;;;;;;1.80;1.70;;;18.30;1.00;;;;;;6167313;23;20858;-78
2022/07/06 00:11:36;;;;;;;3.40;1.60;;;18.30;1.00;;;;;;6168030;23;20391;-82
2022/07/06 00:14:03;;;;;;;2.60;1.40;;;18.30;1.00;;;;;;6165801;23;20427;-81
2022/07/06 00:16:34;;;;;;;1.73;1.37;;;18.30;1.00;;;;;;6168538;23;20387;-78
2022/07/06 00:19:01;;;;;;;2.93;1.30;;;18.20;1.00;;;;;;6167745;23;20927;-80
2022/07/06 00:21:29;;;;;;;2.43;1.40;;;18.20;1.00;;;;;;6129955;23;20433;-81
2022/07/06 00:23:58;;;;;;;2.07;1.87;;;18.20;1.00;;;;;;6155550;23;20426;-82
2022/07/06 00:26:25;;;;;;;1.90;1.53;;;18.10;1.00;;;;;;6164083;23;20435;-83
2022/07/06 00:28:56;;;;;;;6.30;1.80;;;18.10;1.00;;;;;;6141522;23;20386;-81
2022/07/06 00:31:23;;;;;;;3.60;2.00;;;18.10;1.00;;;;;;6152707;23;20966;-78
2022/07/06 00:33:54;;;;;;;3.00;1.57;;;18.00;1.00;;;;;;6154853;23;20397;-82
2022/07/06 00:36:21;;;;;;;2.17;1.63;;;17.90;1.00;;;;;;6138693;23;20403;-82
2022/07/06 00:38:52;;;;;;;3.77;1.53;;;18.00;1.00;;;;;;6152152;23;20494;-78
2022/07/06 00:41:26;;;;;;;4.83;1.47;;;18.00;1.00;;;;;;6140307;23;20495;-82
2022/07/06 00:43:56;;;;;;;1.70;1.30;;;18.00;1.00;;;;;;6137420;23;20425;-78
2022/07/06 00:46:28;;;;;;;1.00;0.90;;;18.00;1.00;;;;;;6151152;23;20441;-78
2022/07/06 00:48:55;;;;;;;3.57;1.20;;;18.00;1.00;;;;;;6165157;23;20419;-79
2022/07/06 00:51:25;;;;;;;2.03;1.50;;;17.90;1.00;;;;;;6157444;23;21210;-82
2022/07/06 00:53:55;;;;;;;1.97;1.50;;;17.90;1.00;;;;;;6170680;23;20426;-78
2022/07/06 00:56:23;;;;;;;8.90;2.47;;;17.80;1.00;;;;;;6163900;23;20430;-81
2022/07/06 00:58:53;;;;;;;3.50;1.50;;;17.80;1.00;;;;;;6140894;23;20378;-81
2022/07/06 01:01:22;;;;;;;3.83;1.50;;;17.80;1.00;;;;;;6163119;23;20415;-78
2022/07/06 01:03:55;;;;;;;3.80;2.30;;;17.80;1.00;;;;;;6167408;23;20402;-82
2022/07/06 01:06:22;;;;;;;2.50;1.90;;;17.80;1.00;;;;;;6165173;23;21014;-78
2022/07/06 01:09:00;;;;;;;1.70;1.30;;;17.80;1.00;;;;;;6167594;23;20395;-81
2022/07/06 01:11:27;;;;;;;3.83;1.93;;;17.80;1.00;;;;;;6166154;23;20430;-82
2022/07/06 01:13:55;;;;;;;1.80;1.23;;;17.80;1.00;;;;;;6150805;23;20484;-82
2022/07/06 01:16:24;;;;;;;4.03;1.40;;;17.70;1.00;;;;;;6162935;23;21128;-82
2022/07/06 01:18:51;;;;;;;1.90;1.80;;;17.70;1.00;;;;;;6166924;23;20406;-78
2022/07/06 01:21:31;;;;;;;5.17;1.63;;;17.70;1.00;;;;;;6169569;23;20927;-81
2022/07/06 01:24:02;;;;;;;3.23;2.23;;;17.70;1.00;;;;;;6168759;23;20855;-78
2022/07/06 01:26:30;;;;;;;3.90;2.00;;;17.70;1.00;;;;;;6168373;23;20456;-82
2022/07/06 01:28:57;;;;;;;2.60;1.60;;;17.70;1.00;;;;;;6170250;23;20540;-78
2022/07/06 01:31:27;;;;;;;1.73;1.63;;;17.60;1.00;;;;;;6169100;23;20430;-78
2022/07/06 01:33:56;;;;;;;4.13;1.70;;;17.60;1.00;;;;;;6167980;23;20419;-77
2022/07/06 01:36:26;;;;;;;4.40;2.00;;;17.50;1.00;;;;;;6170037;23;20405;-81
2022/07/06 01:38:54;;;;;;;3.60;1.90;;;17.50;1.00;;;;;;6164357;23;20418;-78
2022/07/06 01:41:24;;;;;;;2.43;1.90;;;17.50;1.00;;;;;;6159454;23;20422;-78
2022/07/06 01:43:50;;;;;;;1.70;1.50;;;17.50;1.00;;;;;;6158644;23;20431;-78
2022/07/06 01:46:19;;;;;;;1.93;1.63;;;17.50;1.00;;;;;;6160067;23;20442;-79
2022/07/06 01:48:46;;;;;;;1.90;1.50;;;17.60;1.00;;;;;;6142181;23;20826;-78
2022/07/06 01:51:15;;;;;;;3.20;1.60;;;17.60;1.00;;;;;;6135801;23;20387;-81
2022/07/06 01:53:46;;;;;;;3.60;1.60;;;17.60;1.00;;;;;;6150861;23;20419;-81
2022/07/06 01:56:13;;;;;;;2.60;1.90;;;17.70;1.00;;;;;;6168156;23;20438;-79
2022/07/06 01:58:44;;;;;;;1.70;1.57;;;17.70;1.00;;;;;;6167196;23;20880;-77
2022/07/06 02:01:11;;;;;;;1.97;1.70;;;17.80;1.00;;;;;;6165255;23;20435;-83
2022/07/06 02:03:43;;;;;;;5.00;1.60;;;17.80;1.00;;;;;;6168740;23;20423;-80
2022/07/06 02:06:11;;;;;;;2.60;1.70;;;17.80;1.00;;;;;;6151850;23;20477;-79
2022/07/06 02:08:46;;;;;;;4.37;2.07;;;17.90;1.00;;;;;;6168001;23;20423;-78
2022/07/06 02:11:14;;;;;;;2.67;1.47;;;17.90;1.00;;;;;;6167646;23;20428;-79
2022/07/06 02:13:44;;;;;;;1.87;1.67;;;18.00;1.00;;;;;;6170460;23;20431;-79
2022/07/06 02:16:11;;;;;;;6.10;1.90;;;18.10;1.00;;;;;;6168251;23;20502;-81
2022/07/06 02:18:40;;;;;;;2.80;1.80;;;18.10;1.00;;;;;;6169221;23;20447;-78
2022/07/06 02:21:10;;;;;;;1.20;1.10;;;18.10;1.00;;;;;;6167158;23;20422;-82
2022/07/06 02:23:37;;;;;;;2.40;1.57;;;18.10;1.00;;;;;;6168696;23;20560;-82
2022/07/06 02:26:06;;;;;;;5.60;2.07;;;18.10;1.00;;;;;;6173220;23;20466;-82
2022/07/06 02:28:34;;;;;;;3.33;1.80;;;18.10;1.00;;;;;;6170483;23;20458;-77
2022/07/06 02:31:04;;;;;;;1.70;1.60;;;18.00;1.00;;;;;;6169011;23;20439;-80
2022/07/06 02:33:31;;;;;;;2.87;1.70;;;17.90;1.00;;;;;;6166588;23;20430;-78
2022/07/06 02:36:03;;;;;;;3.03;2.00;;;17.80;1.00;;;;;;6168832;23;20584;-81
2022/07/06 02:38:30;;;;;;;2.00;1.80;;;17.50;1.00;;;;;;6168585;23;20419;-80
2022/07/06 02:40:57;;;;;;;2.50;2.03;;;17.20;1.00;;;;;;6170054;23;20395;-78
2022/07/06 02:43:24;;;;;;;3.23;1.97;;;17.00;1.00;;;;;;6170869;23;20414;-80
2022/07/06 02:45:53;;;;;;;2.03;1.93;;;17.00;1.00;;;;;;6168963;23;20561;-82
2022/07/06 02:48:33;;;;;;;1.90;1.70;;;16.90;1.00;;;;;;6166736;23;20600;-81
2022/07/06 02:51:04;;;;;;;2.90;2.30;;;16.90;1.00;;;;;;6172001;23;20422;-82
2022/07/06 02:53:31;;;;;;;3.50;2.40;;;16.90;1.00;;;;;;6170305;23;20417;-79
2022/07/06 02:55:59;;;;;;;4.43;3.37;;;16.80;1.00;;;;;;6167889;23;20843;-82
2022/07/06 02:58:26;;;;;;;5.90;2.73;;;16.60;1.00;;;;;;6168164;23;20474;-82
2022/07/06 03:00:55;;;;;;;3.63;2.80;;;16.40;1.00;;;;;;6170136;23;20458;-82
2022/07/06 03:03:25;;;;;;;3.90;2.73;;;16.30;1.00;;;;;;6169542;23;20459;-83
2022/07/06 03:05:53;;;;;;;4.30;3.37;;;16.20;1.00;;;;;;6169406;23;20949;-79
2022/07/06 03:08:24;;;;;;;3.90;2.93;;;16.10;1.00;;;;;;6168153;23;20398;-82
2022/07/06 03:10:51;;;;;;;4.23;3.43;;;16.00;1.00;;;;;;6169980;23;21187;-79
2022/07/06 03:13:23;;;;;;;3.70;3.30;;;15.90;1.00;;;;;;6166446;23;20430;-78
2022/07/06 03:15:50;;;;;;;3.07;2.80;;;15.90;1.00;;;;;;6169506;23;20458;-83
2022/07/06 03:18:26;;;;;;;4.13;2.83;;;15.80;1.00;;;;;;6169850;23;20395;-80
2022/07/06 03:20:55;;;;;;;3.00;2.80;;;15.80;1.00;;;;;;6142964;23;20418;-81
2022/07/06 03:23:25;;;;;;;3.83;2.80;;;15.70;1.00;;;;;;6168095;23;20390;-82
2022/07/06 03:25:51;;;;;;;5.10;3.60;;;15.70;1.00;;;;;;6167659;23;20490;-79
2022/07/06 03:28:21;;;;;;;3.13;2.50;;;15.60;1.00;;;;;;6168421;23;20951;-78
2022/07/06 03:30:50;;;;;;;3.13;2.80;;;15.60;1.00;;;;;;6167986;23;20885;-79
2022/07/06 03:33:21;;;;;;;4.53;3.73;;;15.60;1.00;;;;;;6168595;23;20438;-82
2022/07/06 03:35:50;;;;;;;5.47;3.03;;;15.60;1.00;;;;;;6172379;23;20505;-78
2022/07/06 03:38:16;;;;;;;7.90;6.83;;;15.50;1.00;;;;;;6165820;23;20938;-78
2022/07/06 03:40:45;;;;;;;3.83;3.43;;;15.50;1.00;;;;;;6169939;23;20435;-76
2022/07/06 03:43:13;;;;;;;3.97;2.93;;;15.50;1.00;;;;;;6168674;23;20916;-80
2022/07/06 03:45:45;;;;;;;3.47;3.13;;;15.50;1.00;;;;;;6172572;23;20405;-82
2022/07/06 03:48:12;;;;;;;4.20;3.57;;;15.60;1.00;;;;;;6167394;23;20433;-78
2022/07/06 03:50:44;;;;;;;4.27;3.70;;;15.60;1.00;;;;;;6168583;23;20445;-81
2022/07/06 03:53:13;;;;;;;4.20;3.37;;;15.60;1.00;;;;;;6168743;23;20992;-77
2022/07/06 03:56:27;;;;;;;5.30;3.07;;;15.60;1.00;;;;;;6167181;23;20413;-76
2022/07/06 03:58:35;;;;;;;4.67;4.00;;;15.60;1.00;;;;;;6165181;23;20434;-80
2022/07/06 04:01:04;;;;;;;5.70;3.40;;;15.70;1.00;;;;;;6168745;23;20395;-78
2022/07/06 04:03:31;;;;;;;2.70;2.50;;;15.80;1.00;;;;;;6167109;23;20421;-82
2022/07/06 04:06:04;;;;;;;3.67;2.50;;;15.80;1.00;;;;;;6167278;23;20427;-77
2022/07/06 04:08:31;;;;;;;3.57;3.00;;;15.90;1.00;;;;;;6170039;23;20388;-81
2022/07/06 04:11:13;;;;;;;3.77;3.37;;;16.00;1.00;;;;;;6171380;23;20441;-81
2022/07/06 04:13:47;;;;;;;4.10;2.77;;;16.10;1.00;;;;;;6163114;23;20399;-82
2022/07/06 04:16:16;;;;;;;4.20;3.03;;;16.20;1.00;;;;;;6169405;23;20433;-78
2022/07/06 04:18:45;;;;;;;3.70;2.70;;;16.30;1.00;;;;;;6169728;23;20454;-80
2022/07/06 04:21:17;;;;;;;3.23;2.23;;;16.50;1.00;;;;;;6142332;23;20406;-79
2022/07/06 04:23:44;;;;;;;3.20;2.90;;;16.50;1.00;;;;;;6144765;23;20454;-77
2022/07/06 04:26:15;;;;;;;2.40;2.20;;;16.50;1.00;;;;;;6167214;23;21179;-82
2022/07/06 04:28:43;;;;;;;3.70;2.37;;;16.60;1.00;;;;;;6164029;23;20418;-77
2022/07/06 04:33:55;;;;;;;3.43;2.40;;;16.80;1.00;;;;;;6163150;23;20391;-79
2022/07/06 04:36:27;;;;;;;2.83;2.30;;;16.90;1.00;;;;;;6161365;23;20493;-80
2022/07/06 04:38:54;;;;;;;4.13;2.80;;;16.90;1.00;;;;;;6153539;23;20395;-81
2022/07/06 04:41:27;;;;;;;5.40;4.07;;;17.00;1.00;;;;;;6164069;23;20441;-81
2022/07/06 04:43:54;;;;;;;4.20;2.30;;;17.00;1.00;;;;;;6167306;23;20591;-80
2022/07/06 04:46:26;;;;;;;3.00;2.10;;;16.90;1.00;;;;;;6150881;23;20437;-82
2022/07/06 04:48:56;;;;;;;3.30;1.87;;;16.90;1.00;;;;;;6139952;23;20528;-75
2022/07/06 04:51:38;;;;;;;2.40;2.00;;;16.70;1.00;;;;;;6125322;23;20969;-81
2022/07/06 04:54:08;;;;;;;3.07;2.37;;;16.60;1.00;;;;;;6121144;23;20427;-80
2022/07/06 04:56:36;;;;;;;3.73;2.10;;;16.60;1.00;;;;;;6134629;23;20881;-79
2022/07/06 04:59:08;;;;;;;4.90;2.37;;;16.60;1.00;;;;;;6136363;23;20846;-82
2022/07/06 05:01:36;;;;;;;4.37;2.30;;;16.70;1.00;;;;;;6123059;23;20459;-78
2022/07/06 05:04:06;;;;;;;4.23;2.30;;;16.70;1.00;;;;;;6139657;23;20459;-81
2022/07/06 05:06:35;;;;;;;2.80;2.27;;;16.70;1.00;;;;;;6136356;23;20440;-78
2022/07/06 05:09:04;;;;;;;2.20;1.53;;;16.80;1.00;;;;;;6135189;23;20392;-82
2022/07/06 05:11:31;;;;;;;2.73;1.70;;;16.80;1.00;;;;;;6129632;23;20435;-80
2022/07/06 05:13:58;;;;;;;4.97;2.37;;;16.80;1.00;;;;;;6137223;23;20895;-80
2022/07/06 05:16:25;;;;;;;5.87;1.70;;;16.90;1.00;;;;;;6134576;23;20435;-80
2022/07/06 05:18:52;;;;;;;3.50;1.63;;;16.90;1.00;;;;;;6136024;23;20502;-80
2022/07/06 05:21:26;;;;;;;5.07;2.57;;;16.90;1.00;;;;;;6114176;23;20423;-82
2022/07/06 05:23:58;;;;;;;3.77;2.23;;;16.90;1.00;;;;;;6122902;23;20395;-82
2022/07/06 05:26:25;;;;;;;3.33;2.23;;;16.90;1.00;;;;;;6114814;23;20432;-77
2022/07/06 05:28:59;;;;;;;2.87;2.57;;;16.90;1.00;;;;;;6122039;23;20407;-77
2022/07/06 05:31:35;;;;;;;2.27;2.00;;;17.00;1.00;;;;;;6094523;23;21265;-80
2022/07/06 05:34:06;;;;;;;6.70;2.30;;;17.00;1.00;;;;;;6127780;23;20423;-80
2022/07/06 05:36:35;;;;;;;2.60;1.60;;;17.10;1.00;;;;;;6118466;23;20415;-81
2022/07/06 05:39:04;;;;;;;2.40;1.63;;;17.10;1.00;;;;;;6138954;23;20912;-79
2022/07/06 05:41:36;;;;;;;5.40;2.37;;;17.20;1.00;;;;;;6124532;23;20388;-76
2022/07/06 05:44:05;;;;;;;2.50;1.57;;;17.30;1.00;;;;;;6134822;23;20411;-78
2022/07/06 05:46:32;;;;;;;3.70;2.13;;;17.30;1.00;;;;;;6138840;23;20439;-77
2022/07/06 05:51:45;;;;;;;3.30;2.30;;;17.50;1.00;;;;;;6123547;23;20423;-78
2022/07/06 05:54:16;;;;;;;12.80;6.50;;;17.60;1.00;;;;;;6164695;23;20507;-78
2022/07/06 05:56:46;;;;;;;3.10;1.87;;;17.60;1.00;;;;;;6170195;23;20417;-79
2022/07/06 05:59:13;;;;;;;7.23;3.03;;;17.60;1.00;;;;;;6167729;23;21013;-80
2022/07/06 06:01:45;;;;;;;7.20;2.83;;;17.60;1.00;;;;;;6168617;23;20401;-77
2022/07/06 06:04:13;;;;;;;2.17;1.70;;;17.70;1.00;;;;;;6168523;23;20499;-79
2022/07/06 06:06:45;;;;;;;2.63;1.83;;;17.70;1.00;;;;;;6166223;23;21207;-78
2022/07/06 06:09:16;;;;;;;3.07;2.27;;;17.80;1.00;;;;;;6169197;23;20469;-80
2022/07/06 06:11:43;;;;;;;1.90;1.80;;;17.80;1.00;;;;;;6164774;23;20446;-80
2022/07/06 06:14:10;;;;;;;2.50;1.97;;;17.90;1.00;;;;;;6164890;23;20517;-80
2022/07/06 06:16:37;;;;;;;4.13;1.90;;;17.90;1.00;;;;;;6160024;23;20551;-78
2022/07/06 06:19:04;;;;;;;2.80;1.90;;;18.00;1.00;;;;;;6167526;23;20411;-79
2022/07/06 06:21:31;;;;;;;4.13;2.60;;;18.10;1.00;;;;;;6165886;23;20417;-79
2022/07/06 06:23:58;;;;;;;3.93;2.73;;;18.20;1.00;;;;;;6167353;23;20441;-80
2022/07/06 06:26:27;;;;;;;4.00;2.50;;;18.20;1.00;;;;;;6169376;23;20634;-79
2022/07/06 06:28:54;;;;;;;4.30;2.50;;;18.20;1.00;;;;;;6167032;23;20455;-79
2022/07/06 06:31:26;;;;;;;2.47;1.97;;;18.20;1.00;;;;;;6167669;23;20211;-80
2022/07/06 06:33:56;;;;;;;2.77;2.30;;;18.10;1.00;;;;;;6153299;23;20383;-79
2022/07/06 06:36:24;;;;;;;5.80;2.30;;;18.20;1.00;;;;;;6145540;23;20533;-79
2022/07/06 06:38:58;;;;;;;2.60;1.53;;;18.20;1.00;;;;;;6148152;23;20399;-79
2022/07/06 06:41:27;;;;;;;3.30;2.40;;;18.20;1.00;;;;;;6163847;23;20596;-81
2022/07/06 06:43:54;;;;;;;2.60;1.87;;;18.40;1.00;;;;;;6164994;23;20526;-79
2022/07/06 06:46:25;;;;;;;3.93;2.30;;;18.40;1.00;;;;;;6164588;23;20414;-80
2022/07/06 06:48:53;;;;;;;3.23;2.00;;;18.40;1.00;;;;;;6125910;23;21157;-80
2022/07/06 06:51:24;;;;;;;3.10;1.70;;;18.30;1.00;;;;;;6139316;23;21024;-82
2022/07/06 06:53:54;;;;;;;3.83;2.33;;;18.40;1.00;;;;;;6136811;23;20424;-80
2022/07/06 06:56:26;;;;;;;4.03;1.87;;;18.40;1.00;;;;;;6138189;23;20411;-78
2022/07/06 06:58:54;;;;;;;2.23;1.87;;;18.50;1.00;;;;;;6140743;23;20422;-82
2022/07/06 07:01:25;;;;;;;3.37;1.90;;;18.50;1.00;;;;;;6138440;23;20459;-84
2022/07/06 07:03:52;;;;;;;2.40;1.90;;;18.60;1.00;;;;;;6140823;23;20827;-80
2022/07/06 07:06:20;;;;;;;5.33;2.60;;;18.60;1.00;;;;;;6140423;23;20440;-82
2022/07/06 07:08:48;;;;;;;2.70;1.80;;;18.70;1.00;;;;;;6141303;23;20402;-80
2022/07/06 07:11:15;;;;;;;2.80;1.97;;;18.80;1.00;;;;;;6139590;23;20423;-81
2022/07/06 07:13:47;;;;;;;3.73;1.83;;;19.00;1.00;;;;;;6138292;23;20413;-80
2022/07/06 07:16:14;;;;;;;3.10;1.30;;;19.10;1.00;;;;;;6141119;23;20439;-81
2022/07/06 07:18:51;;;;;;;2.80;1.80;;;19.10;1.00;;;;;;6140308;23;20416;-83
2022/07/06 07:21:18;;;;;;;2.83;1.70;;;18.90;1.00;;;;;;6139379;23;20486;-78
2022/07/06 07:23:47;;;;;;;3.60;2.10;;;19.00;1.00;;;;;;6139384;23;20447;-83
2022/07/06 07:26:15;;;;;;;3.30;1.90;;;19.20;1.00;;;;;;6139512;23;20955;-80
2022/07/06 07:28:54;;;;;;;2.37;1.83;;;19.40;1.00;;;;;;6141781;23;20388;-81
2022/07/06 07:31:25;;;;;;;3.53;2.20;;;19.50;1.00;;;;;;6135445;23;20467;-80
2022/07/06 07:33:56;;;;;;;3.43;2.30;;;19.40;1.00;;;;;;6139027;23;20498;-80
2022/07/06 07:36:29;;;;;;;3.53;1.97;;;19.40;1.00;;;;;;6133240;23;20403;-81
2022/07/06 07:38:56;;;;;;;2.30;1.67;;;19.50;1.00;;;;;;6124541;23;20388;-81
2022/07/06 07:41:27;;;;;;;3.73;1.60;;;19.50;1.00;;;;;;6138165;23;20418;-82
2022/07/06 07:43:56;;;;;;;4.00;2.27;;;19.60;1.00;;;;;;6138774;23;20422;-84
2022/07/06 07:46:26;;;;;;;3.23;1.93;;;19.60;1.00;;;;;;6138047;23;20411;-81
2022/07/06 07:48:55;;;;;;;2.50;1.50;;;19.60;1.00;;;;;;6140723;23;20892;-81
2022/07/06 07:51:26;;;;;;;2.30;1.53;;;19.60;1.00;;;;;;6138666;23;20400;-80
2022/07/06 07:53:53;;;;;;;5.07;2.07;;;19.80;1.00;;;;;;6140838;23;20900;-87
2022/07/06 07:56:33;;;;;;;2.97;1.40;;;20.00;1.00;;;;;;6139346;23;20820;-79
2022/07/06 07:59:13;;;;;;;1.87;1.37;;;19.90;1.00;;;;;;6138529;23;20443;-82
2022/07/06 08:01:49;;;;;;;1.80;1.17;;;20.30;1.00;;;;;;6121350;23;20447;-83
2022/07/06 08:04:18;;;;;;;1.80;1.33;;;20.70;1.00;;;;;;6140671;23;20412;-83
2022/07/06 08:06:50;;;;;;;3.10;1.63;;;20.90;1.00;;;;;;6140936;23;20422;-80
2022/07/06 08:09:18;;;;;;;2.27;1.60;;;20.70;1.00;;;;;;6139776;23;20395;-82
2022/07/06 08:11:46;;;;;;;4.30;1.60;;;20.60;1.00;;;;;;6140759;23;20384;-81
2022/07/06 08:14:17;;;;;;;1.70;1.00;;;20.70;1.00;;;;;;6141199;23;20496;-82
2022/07/06 08:16:49;;;;;;;3.73;1.70;;;20.80;1.00;;;;;;6139668;23;20411;-80
2022/07/06 08:19:16;;;;;;;2.73;1.50;;;21.10;1.00;;;;;;6136728;23;20527;-79
2022/07/06 08:21:48;;;;;;;3.13;1.23;;;21.40;1.00;;;;;;6139679;23;20419;-79
2022/07/06 08:24:17;;;;;;;2.60;1.20;;;21.30;1.00;;;;;;6137361;23;20435;-82
2022/07/06 08:26:46;;;;;;;3.00;1.23;;;21.10;1.00;;;;;;6141403;23;20602;-80
2022/07/06 08:29:14;;;;;;;3.03;1.60;;;21.30;1.00;;;;;;6139779;23;20892;-78
2022/07/06 08:31:47;;;;;;;1.67;1.33;;;21.50;1.00;;;;;;6139963;23;20410;-80
2022/07/06 08:34:14;;;;;;;3.70;1.40;;;21.60;1.00;;;;;;6140741;23;20560;-80
2022/07/06 08:36:45;;;;;;;4.73;1.80;;;21.50;1.00;;;;;;6141975;23;20418;-81
2022/07/06 08:39:13;;;;;;;1.97;1.37;;;21.30;1.00;;;;;;6138867;23;20415;-81
2022/07/06 08:41:47;;;;;;;3.13;1.83;;;21.00;1.00;;;;;;6140564;23;20470;-80
2022/07/06 08:44:16;;;;;;;4.27;1.47;;;20.80;1.00;;;;;;6139497;23;20387;-77
2022/07/06 08:46:49;;;;;;;4.13;1.80;;;20.80;1.00;;;;;;6145445;23;20411;-79
2022/07/06 08:49:17;;;;;;;3.60;1.30;;;20.90;1.00;;;;;;6169459;23;20421;-82
2022/07/06 08:51:47;;;;;;;2.30;1.70;;;21.10;1.00;;;;;;6144979;23;20462;-78
2022/07/06 08:54:15;;;;;;;2.17;1.67;;;21.50;1.00;;;;;;6166448;23;20521;-79
2022/07/06 08:56:49;;;;;;;4.07;1.27;;;21.50;1.00;;;;;;6169560;23;20391;-78
2022/07/06 08:59:18;;;;;;;3.80;1.43;;;21.60;1.00;;;;;;6163557;23;20438;-85
2022/07/06 09:01:48;;;;;;;3.13;1.73;;;21.50;1.00;;;;;;6171803;23;20442;-80
2022/07/06 09:04:17;;;;;;;1.70;1.30;;;21.10;1.00;;;;;;6173409;23;20450;-79
2022/07/06 09:06:49;;;;;;;1.20;0.93;;;20.70;1.00;;;;;;6171404;23;20405;-79
2022/07/06 09:09:25;;;;;;;2.60;1.13;;;20.50;1.00;;;;;;6166906;23;20434;-80
2022/07/06 09:12:04;;;;;;;3.00;1.10;;;20.30;1.00;;;;;;6169441;23;20505;-77
2022/07/06 09:14:35;;;;;;;3.30;1.17;;;20.20;1.00;;;;;;6171678;23;20893;-82
2022/07/06 09:17:11;;;;;;;2.33;1.50;;;20.30;1.00;;;;;;6174482;23;20411;-79
2022/07/06 09:19:42;;;;;;;1.77;1.13;;;20.50;1.00;;;;;;6170161;23;20422;-77
2022/07/06 09:22:27;;;;;;;2.57;0.90;;;20.50;1.00;;;;;;6167945;23;20510;-79
2022/07/06 09:25:07;;;;;;;2.50;1.40;;;20.60;1.00;;;;;;6170872;23;20493;-78
2022/07/06 09:27:49;;;;;;;;;;;;;;;;;;;;;
2022/07/06 09:30:29;;;;;;;;;;;;;;;;;;;;;
2022/07/06 09:32:57;;;;;;;3.93;1.47;;;21.20;1.00;;;;;;6172788;23;39843;-80
2022/07/06 09:35:36;;;;;;;1.00;0.90;;;21.50;1.00;;;;;;6169043;23;20415;-80
2022/07/06 09:38:08;;;;;;;2.47;1.07;;;21.70;1.00;;;;;;6171746;23;20470;-81
2022/07/06 09:40:36;;;;;;;1.37;0.90;;;22.10;1.00;;;;;;6174393;23;20375;-79
2022/07/06 09:43:27;;;;;;;2.70;1.17;;;22.10;1.00;;;;;;6172285;23;20403;-78
2022/07/06 09:45:57;;;;;;;2.37;0.87;;;22.30;1.00;;;;;;6170551;23;20411;-80
2022/07/06 09:48:30;;;;;;;1.27;0.83;;;22.20;1.00;;;;;;6169485;23;20407;-79
2022/07/06 09:50:59;;;;;;;1.70;0.87;;;21.80;1.00;;;;;;6169908;23;20641;-78
2022/07/06 09:53:29;;;;;;;2.43;1.00;;;21.50;1.00;;;;;;6173410;23;20379;-82
2022/07/06 09:55:58;;;;;;;1.43;0.70;;;21.30;1.00;;;;;;6172977;23;20850;-80
2022/07/06 09:58:28;;;;;;;1.40;0.80;;;21.20;1.00;;;;;;6171453;23;20423;-77
2022/07/06 10:00:57;;;;;;;5.57;1.30;;;21.30;1.00;;;;;;6141395;23;20419;-79
2022/07/06 10:03:25;;;;;;;1.30;1.20;;;21.30;1.00;;;;;;6167787;23;20423;-79
2022/07/06 10:05:52;;;;;;;1.77;1.03;;;21.30;1.00;;;;;;6171754;23;20426;-80
2022/07/06 10:08:21;;;;;;;3.53;1.10;;;21.60;1.00;;;;;;6169243;23;20477;-79
2022/07/06 10:10:50;;;;;;;3.90;1.93;;;21.90;1.00;;;;;;6168964;23;20525;-79
2022/07/06 10:13:26;;;;;;;5.63;3.40;;;22.20;1.00;;;;;;6169937;23;20479;-79
2022/07/06 10:15:54;;;;;;;5.53;3.30;;;22.00;1.00;;;;;;6156168;23;20450;-78
2022/07/06 10:18:35;;;;;;;2.93;2.30;;;21.90;1.00;;;;;;6167995;23;20407;-77
2022/07/06 10:21:08;;;;;;;3.23;1.70;;;21.90;1.00;;;;;;6144733;23;20574;-76
2022/07/06 10:23:41;;;;;;;4.63;1.70;;;22.00;1.00;;;;;;6148309;23;20404;-79
2022/07/06 10:26:12;;;;;;;4.00;2.60;;;22.00;1.00;;;;;;6156714;23;20580;-79
2022/07/06 10:28:43;;;;;;;4.03;3.03;;;22.00;1.00;;;;;;6170272;23;20458;-77
2022/07/06 10:31:12;;;;;;;3.97;2.00;;;21.70;1.00;;;;;;6159879;23;20415;-77
2022/07/06 10:34:03;;;;;;;3.00;1.70;;;21.70;1.00;;;;;;6170596;23;20395;-78
2022/07/06 10:36:33;;;;;;;2.77;1.27;;;21.80;1.00;;;;;;6136377;23;20391;-79
2022/07/06 10:41:02;;;;;;;3.33;1.40;;;22.30;1.00;;;;;;6140514;23;20976;-77
2022/07/06 10:41:48;;;;;;;2.47;1.40;;;22.90;1.00;;;;;;6129231;23;20422;-77
2022/07/06 10:44:20;;;;;;;2.43;1.03;;;23.30;1.00;;;;;;6166759;23;20419;-77
2022/07/06 10:46:58;;;;;;;3.27;1.17;;;23.30;1.00;;;;;;6173688;23;20387;-76
2022/07/06 10:49:40;;;;;;;1.60;1.10;;;23.20;1.00;;;;;;6118962;23;20442;-75
2022/07/06 10:52:08;;;;;;;2.37;1.30;;;23.20;1.00;;;;;;6148558;23;21045;-76
2022/07/06 10:54:40;;;;;;;4.50;0.83;;;23.00;1.00;;;;;;6140877;23;20379;-76
2022/07/06 10:57:28;;;;;;;1.93;1.03;;;22.90;1.00;;;;;;6163858;23;20395;-82
2022/07/06 11:00:02;;;;;;;2.20;1.00;;;23.00;1.00;;;;;;6156787;23;20410;-78
2022/07/06 11:02:39;;;;;;;1.57;1.10;;;23.60;1.00;;;;;;6150263;23;20393;-76
2022/07/06 11:05:42;;;;;;;3.60;1.33;;;24.70;1.00;;;;;;6139663;23;21130;-75
2022/07/06 11:08:16;;;;;;;6.00;1.10;;;26.10;1.00;;;;;;6167680;23;20569;-79
2022/07/06 11:10:55;;;;;;;2.93;1.07;;;27.00;1.00;;;;;;6141161;23;20402;-78
2022/07/06 11:13:38;;;;;;;1.47;1.00;;;27.70;1.00;;;;;;6140247;23;20697;-76
2022/07/06 11:16:40;;;;;;;3.77;1.90;;;28.10;1.00;;;;;;6148559;23;20911;-78
2022/07/06 11:19:17;;;;;;;1.80;1.37;;;28.90;1.00;;;;;;6125052;23;20427;-80
2022/07/06 11:24:39;;;;;;;2.73;0.80;;;28.40;1.00;;;;;;6152116;23;20391;-80
2022/07/06 11:27:07;;;;;;;1.83;0.77;;;27.70;1.00;;;;;;6158641;23;20429;-80
2022/07/06 11:29:44;;;;;;;7.50;1.90;;;27.40;1.00;;;;;;6129145;23;20414;-81
2022/07/06 11:32:23;;;;;;;2.53;0.97;;;26.80;1.00;;;;;;6171546;23;20415;-79
2022/07/06 11:34:53;;;;;;;6.30;1.40;;;25.70;1.00;;;;;;6167116;23;20427;-78
2022/07/06 11:37:43;;;;;;;0.90;0.80;;;24.60;1.00;;;;;;6170158;23;21318;-81
2022/07/06 11:40:11;;;;;;;4.00;1.00;;;23.60;1.00;;;;;;6151235;23;20436;-81
2022/07/06 11:42:40;;;;;;;1.70;1.30;;;22.90;1.00;;;;;;6165737;23;20438;-79
2022/07/06 11:45:08;;;;;;;1.90;1.00;;;22.70;1.00;;;;;;6166346;23;20422;-79
2022/07/06 11:47:37;;;;;;;1.50;1.10;;;22.90;1.00;;;;;;6150969;23;21435;-76
2022/07/06 11:50:09;;;;;;;0.90;0.70;;;22.90;1.00;;;;;;6155106;23;20433;-80
2022/07/06 11:52:38;;;;;;;2.97;1.10;;;23.10;1.00;;;;;;6155147;23;20454;-78
2022/07/06 11:55:08;;;;;;;1.67;0.93;;;23.40;1.00;;;;;;6155975;23;20398;-78
2022/07/06 11:57:37;;;;;;;4.33;1.53;;;23.60;1.00;;;;;;6127523;23;20436;-77
2022/07/06 12:00:07;;;;;;;2.10;1.20;;;23.90;1.00;;;;;;6150655;23;20507;-80
2022/07/06 12:02:38;;;;;;;2.13;1.00;;;24.60;1.00;;;;;;6168149;23;20397;-79
2022/07/06 12:05:06;;;;;;;2.03;0.67;;;24.70;1.00;;;;;;6128494;23;20431;-80
2022/07/06 12:07:39;;;;;;;1.33;0.50;;;24.90;1.00;;;;;;6143479;23;20407;-80
2022/07/06 12:10:15;;;;;;;1.17;0.50;;;25.20;1.00;;;;;;6145043;23;20417;-78
2022/07/06 12:12:43;;;;;;;1.07;0.50;;;26.10;1.00;;;;;;6160648;23;20449;-80
2022/07/06 12:15:17;;;;;;;6.30;1.10;;;27.90;1.00;;;;;;6143427;23;20399;-79
2022/07/06 12:17:48;;;;;;;2.13;1.10;;;28.90;1.00;;;;;;6117469;23;20502;-77
2022/07/06 12:20:19;;;;;;;2.90;0.77;;;29.40;1.00;;;;;;6171862;23;21207;-78
2022/07/06 12:22:48;;;;;;;1.17;0.60;;;28.80;1.00;;;;;;6170646;23;20454;-77
2022/07/06 12:25:37;;;;;;;1.73;0.70;;;28.10;1.00;;;;;;6133425;23;20431;-77
2022/07/06 12:28:08;;;;;;;2.60;1.10;;;27.00;1.00;;;;;;6164379;23;20887;-80
2022/07/06 12:30:49;;;;;;;1.97;1.07;;;25.80;1.00;;;;;;6155315;23;20395;-80
2022/07/06 12:33:24;;;;;;;2.73;1.63;;;24.70;1.00;;;;;;6171336;23;20406;-79
2022/07/06 12:35:55;;;;;;;2.73;1.40;;;23.80;1.00;;;;;;6172994;23;20409;-79
2022/07/06 12:38:36;;;;;;;2.13;1.10;;;23.70;1.00;;;;;;6156247;23;20470;-79
2022/07/06 12:41:06;;;;;;;2.70;1.50;;;23.60;1.00;;;;;;6150959;23;21155;-79
2022/07/06 12:43:39;;;;;;;1.10;0.90;;;23.50;1.00;;;;;;6133210;23;20399;-79
2022/07/06 12:46:35;;;;;;;1.50;1.20;;;23.90;1.00;;;;;;6168100;23;20405;-80
2022/07/06 12:49:15;;;;;;;1.83;1.50;;;25.40;1.00;;;;;;6101838;23;21156;-78
2022/07/06 12:51:59;;;;;;;1.47;0.80;;;26.50;1.00;;;;;;6136993;23;20435;-80
2022/07/06 12:54:44;;;;;;;2.80;1.30;;;26.50;1.00;;;;;;6137397;23;21044;-79
2022/07/06 12:57:19;;;;;;;1.60;1.10;;;26.50;1.00;;;;;;6122832;23;20415;-85
2022/07/06 12:59:48;;;;;;;2.30;1.02;;;26.50;1.00;;;;;;6121481;23;20497;-79
2022/07/06 13:02:21;;;;;;;1.53;0.87;;;26.50;1.00;;;;;;6134697;23;20215;-81
2022/07/06 13:04:58;;;;;;;2.33;0.70;;;26.50;1.00;;;;;;6128982;23;20589;-79
2022/07/06 13:07:26;;;;;;;1.57;0.87;;;26.70;1.00;;;;;;6106344;23;20405;-80
2022/07/06 13:10:00;;;;;;;1.63;1.37;;;26.70;1.00;;;;;;6135647;23;20420;-80
2022/07/06 13:12:27;;;;;;;2.23;1.17;;;26.20;1.00;;;;;;6132256;23;21047;-78
2022/07/06 13:14:57;;;;;;;3.47;0.87;;;25.60;1.00;;;;;;6112231;23;20403;-80
2022/07/06 13:17:36;;;;;;;3.40;0.83;;;25.30;1.00;;;;;;6134721;23;20392;-80
2022/07/06 13:20:04;;;;;;;1.83;1.10;;;24.80;1.00;;;;;;6140455;23;20419;-80
2022/07/06 13:22:44;;;;;;;2.63;0.90;;;24.80;1.00;;;;;;6135639;23;20436;-78
2022/07/06 13:25:17;;;;;;;1.73;1.00;;;24.90;1.00;;;;;;6128152;23;20423;-78
2022/07/06 13:27:46;;;;;;;4.03;0.90;;;25.00;1.00;;;;;;6143405;23;21107;-81
2022/07/06 13:30:17;;;;;;;4.53;1.20;;;25.10;1.00;;;;;;6140706;23;20403;-79